To NAV CANADA Home Page Login to a new session Search on AWWS site Feedback and Comments Disclaimer Vers la page française équivalente Tips FAQ What's new on the site To the Forecasts and Observations / NOTAM section To "File a Flight Plan" website Publications and other links Update of the User's profile FIC Telephone Numbers My Weather Data Folder Route Weather Data Regional Weather Data Local Weather Data To the Forecasts and Observations / NOTAM section
Request Generated 04/23/2014 at 07:15:19 UTC . Weather information available at that time is displayed.

METAR/TAF

SARNIA/SARNIA (CHRIS HADFIELD)/ON    (show WxCam)

METAR CYZR 230700Z AUTO 34016KT 9SM OVC018 03/02 A2992 RMK MAX WND
33019KT AT 0642Z SLP136=
SPECI CYZR 230643Z AUTO 33018G23KT 9SM OVC018 03/01 A2992 RMK MAX WND
33019KT AT 0642Z SLP135=
METAR CYZR 230600Z AUTO 35015G20KT 9SM -RA BKN013 OVC020 03/01 A2992
RMK MAX WND 35019KT AT 0542Z SLP136=
METAR CYZR 230500Z AUTO 33015G21KT 9SM -RA OVC019 03/01 A2991 RMK MAX
WND 33019KT AT 0440Z SLP133=
SPECI CYZR 230459Z AUTO 33016KT 9SM -RA OVC019 03/01 A2991 RMK MAX
WND 33019KT AT 0440Z SLP133=

*** REMARK        : Forecast period has ended; this was the last TAF issued
*** REMARQUE : La période de prévision est échue; ceci était le dernier TAF qui a été émis
TAF CYZR 221938Z 2220/2302 31015G25KT P6SM BKN040 TEMPO 2220/2302
P6SM -SHRA BKN020
RMK FCST BASED ON AUTO OBS. NXT FCST WILL BE ISSUED AT 231145Z=
Your time UTC time
Weather data provided by Environment Canada and NAV CANADA